Time;durP1;ratioP1;P1;durP2;ratioP2;P2;SDS_P1;SDS_P2;PMS_P1;PMS_P2;Temp;Humidity;BMP_temperature;BMP_pressure;BME280_temperature;BME280_humidity;BME280_pressure;Samples;Min_cycle;Max_cycle;Signal;HPM_P1;HPM_P2
2023/09/20 00:00:08;;;;;;;2.42;0.70;;;15.50;99.90;;;14.62;100.00;97511.81;5044575;28;20118;-73
2023/09/20 00:02:39;;;;;;;3.88;1.02;;;15.50;99.90;;;14.62;100.00;97522.25;5021324;28;20053;-73
2023/09/20 00:05:14;;;;;;;5.63;0.98;;;15.40;99.90;;;14.64;100.00;97509.91;5041327;28;20049;-73
2023/09/20 00:07:42;;;;;;;6.60;1.30;;;15.40;99.90;;;14.65;100.00;97519.44;5039370;28;20060;-73
2023/09/20 00:10:15;;;;;;;3.75;1.08;;;15.30;99.90;;;14.57;100.00;97508.59;5039883;28;20044;-73
2023/09/20 00:12:44;;;;;;;2.35;1.08;;;15.30;99.90;;;14.69;100.00;97509.63;5041689;28;20048;-73
2023/09/20 00:15:11;;;;;;;3.60;0.85;;;15.20;99.90;;;14.70;100.00;97500.88;5040477;28;20064;-73
2023/09/20 00:17:39;;;;;;;3.63;1.20;;;15.20;99.90;;;14.54;100.00;97499.19;5042940;28;20052;-73
2023/09/20 00:20:14;;;;;;;2.15;1.15;;;15.20;99.90;;;14.61;100.00;97499.66;5043507;28;20049;-73
2023/09/20 00:22:43;;;;;;;4.93;1.17;;;15.30;99.90;;;14.62;100.00;97496.97;5040089;28;20964;-73
2023/09/20 00:25:13;;;;;;;8.30;1.30;;;15.30;99.90;;;14.62;100.00;97493.53;5041484;28;20052;-73
2023/09/20 00:27:41;;;;;;;3.65;1.10;;;15.20;99.90;;;14.57;100.00;97495.53;5057311;28;20123;-74
2023/09/20 00:30:10;;;;;;;2.75;0.90;;;15.30;99.90;;;14.50;100.00;97492.44;5040673;28;20628;-74
2023/09/20 00:32:39;;;;;;;4.40;0.90;;;15.20;99.90;;;14.56;100.00;97489.47;5041544;28;20543;-73
2023/09/20 00:35:13;;;;;;;4.25;1.15;;;15.20;99.90;;;14.58;100.00;97489.41;5058434;28;20091;-73
2023/09/20 00:37:41;;;;;;;3.08;1.05;;;15.20;99.90;;;14.56;100.00;97486.88;5058839;28;20048;-73
2023/09/20 00:40:18;;;;;;;4.57;1.00;;;15.20;99.90;;;14.49;100.00;97485.53;5042159;28;20077;-73
2023/09/20 00:42:51;;;;;;;5.47;1.15;;;15.10;99.90;;;14.59;100.00;97494.50;5041514;28;20114;-74
2023/09/20 00:45:19;;;;;;;3.85;0.98;;;15.10;99.90;;;14.57;100.00;97483.34;5043649;28;20045;-73
2023/09/20 00:47:56;;;;;;;2.00;0.80;;;15.10;99.90;;;14.58;100.00;97481.56;5042018;28;20414;-73
2023/09/20 00:50:31;;;;;;;5.88;1.00;;;15.10;99.90;;;14.54;100.00;97485.25;5035728;28;20053;-72
2023/09/20 00:52:59;;;;;;;5.47;0.93;;;15.20;99.90;;;14.65;100.00;97485.50;5043108;28;20051;-73
2023/09/20 00:55:29;;;;;;;5.10;0.80;;;15.20;99.90;;;14.66;100.00;97484.53;5040514;28;20049;-73
2023/09/20 00:58:07;;;;;;;3.85;0.93;;;15.20;99.90;;;14.57;100.00;97480.72;5043472;28;20060;-73
2023/09/20 01:00:37;;;;;;;2.42;0.80;;;15.30;99.90;;;14.61;100.00;97481.38;5026736;28;20045;-73
2023/09/20 01:03:05;;;;;;;3.72;0.80;;;15.30;99.90;;;14.59;100.00;97478.84;5025987;28;20127;-73
2023/09/20 01:05:39;;;;;;;4.22;0.80;;;15.40;99.90;;;14.59;100.00;97476.22;5041751;28;20047;-72
2023/09/20 01:08:07;;;;;;;2.80;0.80;;;15.30;99.90;;;14.59;100.00;97478.00;5025365;28;20430;-73
2023/09/20 01:10:38;;;;;;;4.60;0.88;;;15.30;99.90;;;14.66;100.00;97473.25;5042477;28;20074;-73
2023/09/20 01:13:09;;;;;;;4.78;1.45;;;15.40;99.90;;;14.69;100.00;97468.69;5041984;28;20053;-73
2023/09/20 01:15:37;;;;;;;4.78;1.13;;;15.40;99.90;;;14.73;100.00;97475.38;5041031;28;20163;-72
2023/09/20 01:18:07;;;;;;;5.28;1.08;;;15.40;99.90;;;14.81;100.00;97465.31;5044152;28;20134;-73
2023/09/20 01:20:39;;;;;;;4.78;0.90;;;15.50;99.90;;;14.81;100.00;97457.47;5042110;28;20154;-73
2023/09/20 01:23:06;;;;;;;3.65;0.80;;;15.50;99.90;;;14.95;100.00;97458.41;5041230;28;20055;-73
2023/09/20 01:25:39;;;;;;;2.58;0.80;;;15.50;99.90;;;14.83;100.00;97454.78;5043185;28;20048;-73
2023/09/20 01:28:09;;;;;;;9.68;1.10;;;15.50;99.90;;;14.85;100.00;97451.13;5044001;28;20120;-73
2023/09/20 01:30:39;;;;;;;2.25;0.88;;;15.50;99.90;;;14.88;100.00;97457.13;5044019;28;20048;-73
2023/09/20 01:33:08;;;;;;;3.45;0.90;;;15.60;99.90;;;14.91;100.00;97454.31;5044231;28;20562;-73
2023/09/20 01:35:37;;;;;;;2.53;0.98;;;15.60;99.90;;;14.84;100.00;97452.06;5042030;28;20045;-74
2023/09/20 01:38:06;;;;;;;4.05;1.10;;;15.60;99.90;;;14.78;100.00;97448.97;5044936;28;20766;-73
2023/09/20 01:40:34;;;;;;;6.38;1.25;;;15.60;99.90;;;14.68;100.00;97451.31;5040618;28;20136;-73
2023/09/20 01:43:08;;;;;;;3.00;0.82;;;15.50;99.90;;;14.70;100.00;97452.06;5041808;28;20061;-72
2023/09/20 01:45:36;;;;;;;2.47;0.90;;;15.50;99.90;;;14.62;100.00;97447.34;5043376;28;20084;-72
2023/09/20 01:48:10;;;;;;;5.90;0.90;;;15.40;99.90;;;14.65;100.00;97451.53;5041424;28;20516;-73
2023/09/20 01:50:41;;;;;;;2.90;0.88;;;15.40;99.90;;;14.64;100.00;97448.09;5040126;28;20045;-73
2023/09/20 01:53:11;;;;;;;4.10;0.70;;;15.40;99.90;;;14.63;100.00;97451.59;5038245;28;20053;-73
2023/09/20 01:55:42;;;;;;;4.82;1.10;;;15.40;99.90;;;14.71;100.00;97445.06;5043918;28;20057;-73
2023/09/20 01:58:12;;;;;;;2.42;0.75;;;15.40;99.90;;;14.57;100.00;97445.91;5042869;28;20546;-72
2023/09/20 02:00:41;;;;;;;3.00;1.00;;;15.40;99.90;;;14.54;100.00;97439.09;5042252;28;20053;-73
2023/09/20 02:03:13;;;;;;;2.47;0.80;;;15.40;99.90;;;14.58;100.00;97445.00;5044461;28;20049;-73
2023/09/20 02:05:44;;;;;;;3.40;1.05;;;15.40;99.90;;;14.56;100.00;97441.63;5025492;28;20202;-73
2023/09/20 02:08:11;;;;;;;4.78;0.98;;;15.30;99.90;;;14.56;100.00;97442.47;5029616;28;20425;-73
2023/09/20 02:10:38;;;;;;;6.05;1.20;;;15.30;99.90;;;14.53;100.00;97436.53;5028289;28;20044;-73
2023/09/20 02:13:06;;;;;;;4.32;1.10;;;15.30;99.90;;;14.49;100.00;97441.13;5046037;28;20577;-73
2023/09/20 02:15:35;;;;;;;1.55;0.80;;;15.30;99.90;;;14.52;100.00;97442.72;5044292;28;20056;-73
2023/09/20 02:18:05;;;;;;;2.95;0.80;;;15.30;99.90;;;14.50;100.00;97436.75;5048629;28;20065;-73
2023/09/20 02:20:39;;;;;;;4.75;0.88;;;15.30;99.90;;;14.45;100.00;97442.25;5043943;28;20060;-73
2023/09/20 02:23:15;;;;;;;4.00;1.10;;;15.20;99.90;;;14.48;100.00;97443.84;5047037;28;20540;-73
2023/09/20 02:25:43;;;;;;;3.00;0.90;;;15.20;99.90;;;14.44;100.00;97438.81;5029780;28;20537;-73
2023/09/20 02:28:11;;;;;;;2.70;1.02;;;15.10;99.90;;;14.41;100.00;97433.78;5048251;28;20060;-73
2023/09/20 02:30:39;;;;;;;4.35;1.23;;;15.20;99.90;;;14.41;100.00;97432.91;5042301;28;20049;-73
2023/09/20 02:33:08;;;;;;;2.10;0.80;;;15.10;99.90;;;14.33;100.00;97425.56;5045290;28;20048;-73
2023/09/20 02:35:37;;;;;;;3.55;0.80;;;15.10;99.90;;;14.38;100.00;97430.50;5043528;28;20065;-73
2023/09/20 02:38:05;;;;;;;4.70;1.10;;;15.10;99.90;;;14.36;100.00;97429.75;5045961;28;20509;-74
2023/09/20 02:40:35;;;;;;;6.38;0.90;;;15.10;99.90;;;14.37;100.00;97434.06;5041721;28;20053;-73
2023/09/20 02:43:04;;;;;;;4.25;0.90;;;15.10;99.90;;;14.32;100.00;97430.84;5046425;28;20077;-76
2023/09/20 02:45:36;;;;;;;4.47;0.90;;;15.00;99.90;;;14.33;100.00;97432.56;5060454;28;20045;-73
2023/09/20 02:48:06;;;;;;;2.25;0.90;;;15.00;99.90;;;14.22;100.00;97431.41;5026896;28;20048;-73
2023/09/20 02:50:35;;;;;;;2.38;0.90;;;15.00;99.90;;;14.26;100.00;97429.47;5043450;28;20166;-74
2023/09/20 02:53:04;;;;;;;4.15;0.90;;;15.00;99.90;;;14.35;100.00;97426.31;5047956;28;20919;-73
2023/09/20 02:55:32;;;;;;;3.58;0.85;;;15.00;99.90;;;14.31;100.00;97427.41;5026960;28;20203;-73
2023/09/20 02:57:59;;;;;;;4.53;1.02;;;15.00;99.90;;;14.32;100.00;97428.25;5063756;28;20059;-73
2023/09/20 03:00:31;;;;;;;2.30;0.85;;;15.00;99.90;;;14.35;100.00;97423.69;5044194;28;20045;-73
2023/09/20 03:03:02;;;;;;;3.65;0.95;;;15.00;99.90;;;14.36;100.00;97409.69;5061116;28;20178;-73
2023/09/20 03:05:32;;;;;;;3.85;0.90;;;15.00;99.90;;;14.37;100.00;97415.78;5042899;28;20051;-73
2023/09/20 03:08:01;;;;;;;3.38;0.95;;;15.10;99.90;;;14.34;100.00;97418.56;5045927;28;20145;-73
2023/09/20 03:10:29;;;;;;;4.30;0.95;;;15.10;99.90;;;14.38;100.00;97415.66;5027682;28;20037;-73
2023/09/20 03:13:00;;;;;;;5.18;1.10;;;15.10;99.90;;;14.37;100.00;97411.38;5047159;28;20132;-74
2023/09/20 03:15:28;;;;;;;3.58;0.90;;;15.10;99.90;;;14.37;100.00;97413.16;5042697;28;20060;-72
2023/09/20 03:18:04;;;;;;;4.18;1.30;;;15.10;99.90;;;14.24;100.00;97407.84;5063210;28;20059;-74
2023/09/20 03:20:34;;;;;;;6.72;0.90;;;15.00;99.90;;;14.34;100.00;97410.72;5043629;28;20088;-73
2023/09/20 03:23:03;;;;;;;4.22;0.90;;;15.00;99.90;;;14.23;100.00;97412.22;5044482;28;20441;-73
2023/09/20 03:25:35;;;;;;;2.28;0.93;;;15.00;99.90;;;14.16;100.00;97410.06;5044061;28;20081;-73
2023/09/20 03:28:10;;;;;;;1.90;0.90;;;14.90;99.90;;;14.10;100.00;97413.88;5046642;28;20053;-72
2023/09/20 03:30:39;;;;;;;5.35;0.90;;;14.90;99.90;;;14.11;100.00;97405.09;5058255;28;20091;-73
2023/09/20 03:33:07;;;;;;;5.03;1.00;;;14.80;99.90;;;14.08;100.00;97400.06;5040837;28;20092;-73
2023/09/20 03:35:34;;;;;;;3.17;0.80;;;14.80;99.90;;;14.02;100.00;97396.03;5041639;28;20911;-73
2023/09/20 03:38:03;;;;;;;2.75;0.80;;;14.90;99.90;;;14.10;100.00;97395.59;5045136;28;20468;-73
2023/09/20 03:40:30;;;;;;;3.25;0.82;;;14.90;99.90;;;14.09;100.00;97391.31;5044857;28;20063;-72
2023/09/20 03:42:57;;;;;;;6.60;1.33;;;14.90;99.90;;;14.11;100.00;97394.66;5042012;28;20060;-75
2023/09/20 03:45:28;;;;;;;2.95;1.10;;;14.80;99.90;;;14.21;100.00;97398.41;5043134;28;20128;-73
2023/09/20 03:47:57;;;;;;;2.65;0.90;;;14.80;99.90;;;14.08;100.00;97399.25;5044657;28;20394;-75
2023/09/20 03:50:25;;;;;;;4.35;0.95;;;14.70;99.90;;;13.80;100.00;97403.50;5044037;28;20045;-73
2023/09/20 03:52:56;;;;;;;2.75;0.95;;;14.70;99.90;;;13.77;100.00;97408.88;5043860;28;20067;-72
2023/09/20 03:55:27;;;;;;;2.30;1.00;;;14.60;99.90;;;13.89;100.00;97408.16;5046252;28;20045;-75
2023/09/20 03:57:54;;;;;;;4.80;0.80;;;14.50;99.90;;;13.94;100.00;97415.72;5044256;28;20073;-75
2023/09/20 04:00:31;;;;;;;2.22;0.82;;;14.50;99.90;;;13.95;100.00;97399.13;5045417;28;20049;-75
2023/09/20 04:02:58;;;;;;;3.60;0.90;;;14.50;99.90;;;13.99;100.00;97403.22;5061687;28;20506;-75
2023/09/20 04:05:26;;;;;;;3.90;0.98;;;14.50;99.90;;;13.92;100.00;97407.13;5037687;28;20080;-75
2023/09/20 04:08:12;;;;;;;4.00;1.08;;;14.60;99.90;;;13.99;100.00;97392.78;5041502;28;20045;-75
2023/09/20 04:10:40;;;;;;;5.50;0.90;;;14.60;99.90;;;14.04;100.00;97395.97;5044131;28;20137;-74
2023/09/20 04:13:08;;;;;;;2.97;0.80;;;14.60;99.90;;;14.06;100.00;97378.44;5043125;28;20051;-75
2023/09/20 04:15:40;;;;;;;2.08;0.88;;;14.60;99.90;;;14.09;100.00;97377.41;5041479;28;20053;-73
2023/09/20 04:18:09;;;;;;;3.28;1.05;;;14.60;99.90;;;13.81;100.00;97372.06;5045853;28;20080;-75
2023/09/20 04:20:37;;;;;;;2.95;1.00;;;14.60;99.90;;;13.73;100.00;97384.75;5043496;28;20045;-75
2023/09/20 04:23:06;;;;;;;5.20;1.30;;;14.40;99.90;;;13.65;100.00;97371.28;5059615;28;20488;-75
2023/09/20 04:25:33;;;;;;;4.28;1.42;;;14.30;99.90;;;13.63;100.00;97370.53;5057639;28;20053;-75
2023/09/20 04:28:01;;;;;;;1.52;0.70;;;14.20;99.90;;;13.85;100.00;97370.13;5045169;28;20793;-76
2023/09/20 04:30:29;;;;;;;6.75;1.10;;;14.30;99.90;;;14.00;100.00;97369.22;5040986;28;20588;-75
2023/09/20 04:32:58;;;;;;;5.32;1.35;;;14.30;99.90;;;14.14;100.00;97367.53;5038924;28;20049;-75
2023/09/20 04:35:26;;;;;;;2.85;0.90;;;14.40;99.90;;;14.06;100.00;97370.63;5041777;28;20048;-73
2023/09/20 04:37:53;;;;;;;7.57;0.95;;;14.60;99.90;;;14.09;100.00;97370.44;5044321;28;20517;-75
2023/09/20 04:40:21;;;;;;;5.28;0.90;;;14.60;99.90;;;14.06;100.00;97370.63;5042963;28;20045;-73
2023/09/20 04:42:48;;;;;;;2.13;0.70;;;14.60;99.90;;;14.05;100.00;97373.31;5045116;28;20044;-74
2023/09/20 04:45:19;;;;;;;2.55;1.05;;;14.60;99.90;;;14.16;100.00;97366.53;5046033;28;20057;-73
2023/09/20 04:47:46;;;;;;;2.25;0.85;;;14.60;99.90;;;14.12;100.00;97367.66;5042301;28;20514;-73
2023/09/20 04:50:14;;;;;;;3.85;1.13;;;14.60;99.90;;;14.14;100.00;97370.16;5042244;28;20532;-74
2023/09/20 04:52:41;;;;;;;3.92;1.42;;;14.60;99.90;;;14.17;100.00;97367.38;5039596;28;20041;-73
2023/09/20 04:55:11;;;;;;;3.80;1.15;;;14.70;99.90;;;14.17;100.00;97369.97;5040560;28;20083;-73
2023/09/20 04:57:38;;;;;;;4.32;1.00;;;14.70;99.90;;;14.21;100.00;97377.53;5040613;28;20367;-73
2023/09/20 05:00:08;;;;;;;4.80;1.10;;;14.70;99.90;;;14.16;100.00;97365.69;5043494;28;20163;-73
2023/09/20 05:02:35;;;;;;;2.97;0.80;;;14.70;99.90;;;14.28;100.00;97367.56;5043073;28;20079;-73
2023/09/20 05:05:04;;;;;;;8.88;2.58;;;14.80;99.90;;;14.50;100.00;97359.22;5043703;28;20053;-75
2023/09/20 05:07:34;;;;;;;3.42;1.20;;;14.90;99.90;;;14.45;100.00;97363.91;5043508;28;20366;-73
2023/09/20 05:10:01;;;;;;;3.97;0.80;;;15.00;99.90;;;14.54;100.00;97360.75;5037487;28;21266;-72
2023/09/20 05:12:28;;;;;;;4.40;1.00;;;15.10;99.90;;;14.68;100.00;97359.06;5042374;28;20133;-75
2023/09/20 05:14:55;;;;;;;4.35;0.80;;;15.10;99.90;;;14.59;100.00;97366.53;5046231;28;20080;-74
2023/09/20 05:17:27;;;;;;;4.30;1.27;;;15.20;99.90;;;14.71;100.00;97356.25;5046144;28;20059;-73
2023/09/20 05:19:54;;;;;;;3.08;0.93;;;15.20;99.90;;;14.72;100.00;97357.94;5045170;28;20106;-72
2023/09/20 05:22:23;;;;;;;2.97;1.02;;;15.30;99.90;;;14.82;100.00;97362.50;5044642;28;20072;-72
2023/09/20 05:24:50;;;;;;;4.30;1.10;;;15.30;99.90;;;14.81;100.00;97358.19;5045008;28;20052;-73
2023/09/20 05:27:17;;;;;;;2.83;0.98;;;15.30;99.90;;;14.87;100.00;97358.72;5045086;28;20045;-73
2023/09/20 05:29:44;;;;;;;9.35;1.55;;;15.40;99.90;;;14.98;100.00;97359.72;5044176;28;20151;-73
2023/09/20 05:32:12;;;;;;;4.18;1.15;;;15.40;99.90;;;14.94;100.00;97350.41;5042244;28;20048;-74
2023/09/20 05:34:39;;;;;;;4.15;0.93;;;15.50;99.90;;;15.00;100.00;97354.41;5046255;28;20420;-72
2023/09/20 05:37:07;;;;;;;5.78;0.98;;;15.40;99.90;;;14.97;100.00;97350.22;5041592;28;20175;-74
2023/09/20 05:39:34;;;;;;;6.70;0.85;;;15.50;99.90;;;14.99;100.00;97352.75;5042407;28;20131;-73
2023/09/20 05:42:03;;;;;;;3.00;1.00;;;15.50;99.90;;;15.10;100.00;97352.91;5044181;28;20147;-73
2023/09/20 05:44:31;;;;;;;5.47;1.08;;;15.60;99.90;;;15.09;100.00;97361.66;5043852;28;20057;-73
2023/09/20 05:46:59;;;;;;;4.45;0.98;;;15.60;99.90;;;15.11;100.00;97357.16;5043353;28;20143;-73
2023/09/20 05:49:26;;;;;;;4.88;0.70;;;15.70;99.90;;;15.22;100.00;97359.09;5044093;28;20171;-73
2023/09/20 05:51:54;;;;;;;1.67;0.80;;;15.70;99.90;;;15.18;100.00;97361.06;5043721;28;20049;-73
2023/09/20 05:54:23;;;;;;;3.92;0.98;;;15.70;99.90;;;15.17;100.00;97358.56;5044941;28;20111;-73
2023/09/20 05:56:51;;;;;;;3.78;0.90;;;15.70;99.90;;;15.19;100.00;97352.28;5045935;28;20049;-73
2023/09/20 05:59:18;;;;;;;3.95;1.05;;;15.80;99.90;;;15.19;100.00;97346.22;5045740;28;20056;-73
2023/09/20 06:01:45;;;;;;;3.40;1.15;;;15.80;99.90;;;15.21;100.00;97354.78;5045343;28;20059;-73
2023/09/20 06:04:13;;;;;;;4.45;1.10;;;15.80;99.90;;;15.21;100.00;97341.72;5045724;28;20049;-73
2023/09/20 06:06:41;;;;;;;3.63;0.90;;;15.80;99.90;;;15.27;100.00;97346.56;5044010;28;20508;-73
2023/09/20 06:09:09;;;;;;;1.67;0.70;;;15.90;99.90;;;15.30;100.00;97342.91;5045325;28;20060;-73
2023/09/20 06:11:36;;;;;;;5.97;1.00;;;15.90;99.90;;;15.32;100.00;97336.63;5046033;28;20200;-73
2023/09/20 06:14:08;;;;;;;2.78;1.00;;;15.90;99.90;;;15.35;100.00;97335.59;5044283;28;20501;-73
2023/09/20 06:16:35;;;;;;;5.00;0.73;;;15.90;99.90;;;15.43;100.00;97347.22;5045223;28;20059;-72
2023/09/20 06:19:03;;;;;;;3.10;1.05;;;16.00;99.90;;;15.47;100.00;97342.63;5047703;28;20049;-73
2023/09/20 06:21:36;;;;;;;5.05;0.88;;;16.00;99.90;;;15.50;100.00;97345.03;5044188;28;20149;-73
2023/09/20 06:24:06;;;;;;;3.20;0.90;;;16.10;99.90;;;15.54;100.00;97341.28;5061162;28;20539;-72
2023/09/20 06:26:34;;;;;;;5.13;1.02;;;16.10;99.90;;;15.57;100.00;97338.47;5044906;28;20088;-73
2023/09/20 06:29:01;;;;;;;5.85;0.93;;;16.20;99.90;;;15.59;100.00;97338.38;5060801;28;20103;-73
2023/09/20 06:31:29;;;;;;;3.95;1.08;;;16.20;99.90;;;15.65;100.00;97341.41;5043228;28;20470;-73
2023/09/20 06:33:56;;;;;;;4.25;0.98;;;16.30;99.90;;;15.75;100.00;97336.44;5024587;28;20131;-73
2023/09/20 06:36:23;;;;;;;3.00;0.88;;;16.30;99.90;;;15.71;100.00;97331.50;5027306;28;20528;-73
2023/09/20 06:38:51;;;;;;;2.60;0.88;;;16.30;99.90;;;15.79;100.00;97340.50;5042554;28;20061;-73
2023/09/20 06:41:20;;;;;;;3.85;0.90;;;16.30;99.90;;;15.82;100.00;97324.59;5043006;28;20140;-73
2023/09/20 06:43:51;;;;;;;4.15;1.10;;;16.30;99.90;;;15.76;100.00;97324.16;5041786;28;20063;-73
2023/09/20 06:46:19;;;;;;;4.55;1.10;;;16.30;99.90;;;15.89;100.00;97323.22;5041435;28;20497;-74
2023/09/20 06:48:46;;;;;;;7.20;1.20;;;16.30;99.90;;;16.00;100.00;97330.38;5039176;28;20085;-73
2023/09/20 06:51:14;;;;;;;3.38;0.88;;;16.30;99.90;;;15.89;100.00;97330.25;5043037;28;20137;-72
2023/09/20 06:53:41;;;;;;;2.22;0.90;;;16.40;99.90;;;15.88;100.00;97334.66;5043072;28;20468;-74
2023/09/20 06:56:08;;;;;;;5.72;1.00;;;16.40;99.90;;;15.81;100.00;97329.97;5046837;28;20516;-73
2023/09/20 06:58:36;;;;;;;3.70;1.10;;;16.50;99.90;;;15.84;100.00;97332.34;5047145;28;20051;-73
2023/09/20 07:01:05;;;;;;;2.88;1.00;;;16.50;99.90;;;15.77;100.00;97331.94;5047239;28;20465;-73
2023/09/20 07:03:32;;;;;;;6.05;1.10;;;16.50;99.90;;;15.73;100.00;97340.91;5047398;28;20532;-73
2023/09/20 07:06:00;;;;;;;3.28;0.80;;;16.50;99.90;;;15.68;100.00;97346.44;5048373;28;20843;-73
2023/09/20 07:08:34;;;;;;;2.50;0.82;;;16.50;99.90;;;15.71;100.00;97344.59;5048320;28;20049;-73
2023/09/20 07:11:03;;;;;;;2.85;0.90;;;16.50;99.90;;;15.80;100.00;97344.78;5045275;28;20053;-73
2023/09/20 07:13:32;;;;;;;3.65;0.95;;;16.50;99.90;;;15.85;100.00;97345.34;5046567;28;20056;-73
2023/09/20 07:16:04;;;;;;;5.18;0.93;;;16.50;99.90;;;15.78;100.00;97348.47;5031873;28;20114;-73
2023/09/20 07:18:32;;;;;;;3.15;1.17;;;16.50;99.90;;;15.95;100.00;97336.88;5044153;28;20050;-73
2023/09/20 07:20:59;;;;;;;3.45;1.08;;;16.60;99.90;;;15.93;100.00;97349.22;5045634;28;20053;-73
2023/09/20 07:23:29;;;;;;;2.67;1.00;;;16.60;99.90;;;15.88;100.00;97345.13;5047306;28;20041;-73
2023/09/20 07:25:59;;;;;;;5.03;1.02;;;16.60;99.90;;;15.90;100.00;97345.03;5030892;28;20098;-73
2023/09/20 07:28:26;;;;;;;5.78;1.23;;;16.70;99.90;;;16.09;100.00;97342.00;5044893;28;20044;-73
2023/09/20 07:30:55;;;;;;;4.32;1.17;;;16.70;99.90;;;16.07;100.00;97336.03;5043546;28;20040;-74
2023/09/20 07:33:31;;;;;;;3.85;1.00;;;16.70;99.90;;;16.18;100.00;97336.13;5047247;28;20122;-73
2023/09/20 07:36:00;;;;;;;2.47;0.80;;;16.70;99.90;;;16.19;100.00;97327.31;5044241;28;20056;-73
2023/09/20 07:38:28;;;;;;;5.47;1.15;;;16.90;99.90;;;16.34;100.00;97335.91;5043869;28;20106;-73
2023/09/20 07:41:13;;;;;;;2.38;0.70;;;17.00;99.90;;;16.62;100.00;97333.94;5046826;28;20077;-73
2023/09/20 07:43:43;;;;;;;2.70;1.10;;;16.90;99.90;;;16.52;100.00;97326.75;5043650;28;20049;-73
2023/09/20 07:46:13;;;;;;;2.80;1.00;;;17.00;99.90;;;16.69;100.00;97329.94;5043548;28;20071;-73
2023/09/20 07:48:48;;;;;;;5.55;1.17;;;17.00;99.90;;;16.69;100.00;97327.31;5043138;28;20090;-73
2023/09/20 07:51:20;;;;;;;3.65;1.13;;;17.10;99.90;;;16.82;100.00;97327.31;5047853;28;20045;-73
2023/09/20 07:53:49;;;;;;;3.92;1.08;;;17.20;99.90;;;17.20;100.00;97323.72;5027968;28;20049;-74
2023/09/20 07:56:17;;;;;;;5.20;1.63;;;17.70;99.90;;;17.56;100.00;97326.22;5046507;28;20496;-74
2023/09/20 07:58:44;;;;;;;2.53;0.85;;;18.20;99.90;;;18.08;100.00;97328.47;5048771;28;20081;-73
2023/09/20 08:01:12;;;;;;;4.00;1.05;;;18.70;99.90;;;18.24;100.00;97322.88;5045394;28;20572;-73
2023/09/20 08:03:50;;;;;;;2.10;0.88;;;18.90;99.90;;;18.02;100.00;97307.94;5030523;28;20394;-73
2023/09/20 08:06:33;;;;;;;3.75;1.20;;;19.10;99.90;;;17.25;100.00;97316.34;5047247;28;20052;-73
2023/09/20 08:09:02;;;;;;;4.85;1.33;;;18.70;99.90;;;17.34;100.00;97316.47;5046481;28;20041;-74
2023/09/20 08:11:30;;;;;;;5.55;1.38;;;18.50;99.90;;;17.74;100.00;97317.88;5045887;28;20124;-73
2023/09/20 08:14:01;;;;;;;2.88;1.10;;;19.10;99.90;;;17.98;100.00;97315.22;5045488;28;20045;-72
2023/09/20 08:16:33;;;;;;;4.78;1.17;;;19.50;99.90;;;18.54;100.00;97315.22;5047004;28;20163;-73
2023/09/20 08:21:48;;;;;;;5.18;1.05;;;21.20;99.90;;;19.36;100.00;97316.56;5042946;28;20066;-73
2023/09/20 09:00:46;;;;;;;3.88;0.90;;;22.40;99.90;;;21.01;100.00;97319.22;5041633;28;20056;-73
2023/09/20 09:03:17;;;;;;;4.38;0.98;;;22.50;99.90;;;21.29;100.00;97318.38;5041881;28;20053;-74
2023/09/20 09:05:46;;;;;;;3.60;1.02;;;22.30;99.90;;;21.06;100.00;97330.19;5038730;28;20088;-74
2023/09/20 09:08:13;;;;;;;2.83;1.00;;;22.00;99.90;;;21.23;100.00;97318.09;5041753;28;20108;-74
2023/09/20 09:10:41;;;;;;;4.47;1.05;;;22.50;99.90;;;21.34;100.00;97317.97;5042484;28;20052;-74
2023/09/20 09:13:08;;;;;;;4.75;1.08;;;22.80;99.90;;;22.39;100.00;97314.47;5039909;28;20052;-74
2023/09/20 09:15:35;;;;;;;2.20;0.77;;;22.80;99.90;;;22.31;100.00;97306.44;5040878;28;20449;-75
2023/09/20 09:18:02;;;;;;;2.20;0.70;;;22.90;99.90;;;22.17;100.00;97312.16;5043283;28;20136;-75
2023/09/20 09:20:33;;;;;;;2.78;0.60;;;23.60;99.90;;;22.06;100.00;97314.00;5044474;28;20057;-75
2023/09/20 09:23:00;;;;;;;2.83;0.60;;;23.00;99.90;;;22.30;100.00;97313.50;5043455;28;20096;-75
2023/09/20 09:25:31;;;;;;;4.10;0.80;;;23.10;99.90;;;21.34;100.00;97317.97;5039329;28;20076;-74
2023/09/20 09:27:59;;;;;;;4.13;0.95;;;22.50;99.90;;;20.97;100.00;97313.34;5042477;28;20057;-75
2023/09/20 09:30:31;;;;;;;2.55;0.52;;;22.10;99.90;;;20.63;100.00;97302.31;5039501;28;20045;-74
2023/09/20 09:32:58;;;;;;;2.80;0.65;;;21.70;99.90;;;21.17;100.00;97316.03;5040470;28;20076;-75
2023/09/20 09:35:26;;;;;;;3.10;0.98;;;21.70;99.90;;;20.66;100.00;97321.38;5043325;28;20053;-75
2023/09/20 09:38:12;;;;;;;3.80;0.60;;;21.60;99.90;;;21.74;100.00;97309.06;5042552;28;20053;-74
2023/09/20 09:40:56;;;;;;;2.20;0.70;;;21.80;99.90;;;21.88;100.00;97311.25;5044356;28;20402;-75
2023/09/20 09:43:29;;;;;;;4.85;0.80;;;21.70;99.90;;;21.61;100.00;97303.25;5043482;28;20224;-75
2023/09/20 09:46:17;;;;;;;3.25;0.82;;;21.90;99.90;;;21.80;100.00;97305.03;5041894;28;20492;-75
2023/09/20 09:48:44;;;;;;;2.80;0.85;;;21.70;99.90;;;21.44;100.00;97286.31;5041117;28;20126;-74
2023/09/20 09:51:13;;;;;;;2.55;0.80;;;22.10;99.90;;;21.75;100.00;97299.34;5025862;28;20051;-73
2023/09/20 09:53:42;;;;;;;4.40;0.80;;;21.80;99.90;;;21.44;100.00;97295.09;5040034;28;20103;-74
2023/09/20 09:56:14;;;;;;;2.47;0.90;;;21.50;99.90;;;20.98;100.00;97295.72;5038734;28;20487;-74
2023/09/20 09:58:42;;;;;;;3.43;0.70;;;21.50;99.90;;;21.47;100.00;97299.25;5042706;28;20044;-72
2023/09/20 10:01:10;;;;;;;2.33;0.60;;;21.30;99.90;;;21.33;100.00;97286.44;5041506;28;20679;-74
2023/09/20 10:03:42;;;;;;;3.13;0.90;;;21.60;99.90;;;21.34;100.00;97286.28;5057310;28;20049;-76
2023/09/20 10:06:18;;;;;;;3.33;0.70;;;21.90;99.90;;;21.69;100.00;97292.78;5039666;28;20073;-75
2023/09/20 10:08:51;;;;;;;5.10;1.08;;;21.70;99.90;;;21.61;100.00;97290.06;5054435;28;20160;-75
2023/09/20 10:11:22;;;;;;;4.43;0.75;;;21.90;99.90;;;21.16;100.00;97267.66;5040677;28;20123;-75
2023/09/20 10:13:51;;;;;;;2.67;0.60;;;21.90;99.90;;;21.09;100.00;97269.19;5041127;28;20045;-73
2023/09/20 10:16:19;;;;;;;4.93;0.88;;;21.60;99.90;;;20.33;100.00;97275.00;5042700;28;20158;-72
2023/09/20 10:18:55;;;;;;;3.60;0.93;;;21.50;99.90;;;20.27;100.00;97268.50;5042568;28;20100;-74
2023/09/20 10:21:30;;;;;;;2.85;0.93;;;21.30;99.90;;;20.55;100.00;97273.13;5039414;28;20128;-74
2023/09/20 10:24:07;;;;;;;6.20;0.80;;;21.30;99.90;;;20.71;100.00;97288.44;5042834;28;20063;-73
2023/09/20 10:26:39;;;;;;;6.35;0.98;;;21.30;99.90;;;20.66;100.00;97288.84;5048383;28;20095;-73
2023/09/20 10:29:28;;;;;;;2.92;0.77;;;21.10;99.90;;;21.15;100.00;97279.22;5045111;28;20053;-73
2023/09/20 10:32:13;;;;;;;2.63;0.70;;;21.30;99.90;;;21.12;100.00;97271.59;5041880;28;20044;-73
2023/09/20 10:35:18;;;;;;;3.38;1.00;;;21.40;99.90;;;20.78;100.00;97273.78;5062684;28;20440;-73
2023/09/20 10:38:07;;;;;;;3.88;0.90;;;21.30;99.90;;;20.75;100.00;97271.41;5041392;28;20071;-73
2023/09/20 10:43:42;;;;;;;4.55;0.90;;;21.00;99.90;;;20.88;100.00;97270.16;5046066;28;20617;-74
2023/09/20 10:46:17;;;;;;;5.18;0.85;;;21.10;99.90;;;21.04;100.00;97260.88;5046558;28;20057;-74
2023/09/20 10:48:50;;;;;;;3.00;1.10;;;21.30;99.90;;;21.10;100.00;97258.53;5047363;28;20134;-73
2023/09/20 10:51:49;;;;;;;2.55;0.90;;;21.30;99.90;;;21.42;100.00;97257.41;5044309;28;20044;-75
2023/09/20 10:54:25;;;;;;;7.75;1.02;;;21.40;99.90;;;21.63;100.00;97251.94;5047029;28;20052;-74
2023/09/20 10:57:09;;;;;;;2.78;0.70;;;21.20;99.90;;;21.71;100.00;97246.81;5048267;28;20795;-73
2023/09/20 10:59:40;;;;;;;3.45;1.08;;;21.50;99.90;;;21.98;100.00;97247.81;5046940;28;20076;-74
2023/09/20 11:02:16;;;;;;;3.33;1.00;;;21.50;99.90;;;21.94;100.00;97241.16;5044064;28;20045;-73
2023/09/20 11:04:46;;;;;;;2.83;0.90;;;21.90;99.90;;;22.13;100.00;97235.78;5046946;28;20049;-72
2023/09/20 11:07:14;;;;;;;3.67;0.80;;;22.10;99.90;;;21.84;100.00;97232.44;5046127;28;20053;-74